createdAt,value
2019-05-01T00:02:34.197Z,85.05
2019-05-01T00:05:17.659Z,85.30
2019-05-01T00:07:47.011Z,85.66
2019-05-01T00:10:16.803Z,85.00
2019-05-01T00:12:46.344Z,84.28
2019-05-01T00:15:15.686Z,84.37
2019-05-01T00:17:46.657Z,84.01
2019-05-01T00:20:16.264Z,83.20
2019-05-01T00:22:45.604Z,82.45
2019-05-01T00:25:14.930Z,82.64
2019-05-01T00:27:44.290Z,83.23
2019-05-01T00:30:28.831Z,83.15
2019-05-01T00:32:47.715Z,82.82
2019-05-01T00:35:17.475Z,82.94
2019-05-01T00:37:46.809Z,82.75
2019-05-01T00:40:16.129Z,82.56
2019-05-01T00:42:45.499Z,82.55
2019-05-01T00:45:15.251Z,82.37
2019-05-01T00:47:44.574Z,82.47
2019-05-01T00:50:13.901Z,82.61
2019-05-01T00:52:43.210Z,82.43
2019-05-01T00:55:30.375Z,81.83
2019-05-01T00:58:07.541Z,81.67
2019-05-01T01:00:44.602Z,81.59
2019-05-01T01:03:13.931Z,81.46
2019-05-01T01:05:43.294Z,81.26
2019-05-01T01:08:12.606Z,80.40
2019-05-01T01:10:41.923Z,80.22
2019-05-01T01:13:11.283Z,80.13
2019-05-01T01:15:40.618Z,80.47
2019-05-01T01:18:09.948Z,80.65
2019-05-01T01:20:39.289Z,81.07
2019-05-01T01:23:08.607Z,81.09
2019-05-01T01:25:38.020Z,81.36
2019-05-01T01:28:07.397Z,81.80
2019-05-01T01:30:37.041Z,81.71
2019-05-01T01:33:06.564Z,82.17
2019-05-01T01:35:35.874Z,81.19
2019-05-01T01:38:05.205Z,81.12
2019-05-01T01:40:35.978Z,81.15
2019-05-01T01:43:24.065Z,81.12
2019-05-01T01:45:54.830Z,81.54
2019-05-01T01:48:24.144Z,79.20
2019-05-01T01:50:53.482Z,79.03
2019-05-01T01:53:23.714Z,76.42
2019-05-01T01:55:54.346Z,71.89
2019-05-01T01:58:25.468Z,64.69
2019-05-01T02:01:09.546Z,60.50
2019-05-01T02:03:40.837Z,58.96
2019-05-01T02:06:10.156Z,57.22
2019-05-01T02:08:39.714Z,56.95
2019-05-01T02:11:09.135Z,55.36
2019-05-01T02:13:38.787Z,55.59
2019-05-01T02:16:08.119Z,55.23
2019-05-01T02:18:37.538Z,55.23
2019-05-01T02:21:06.888Z,54.30
2019-05-01T02:23:36.233Z,54.38
2019-05-01T02:26:06.690Z,54.39
2019-05-01T02:28:45.319Z,54.47
2019-05-01T02:31:28.101Z,54.44
2019-05-01T02:33:56.802Z,54.16
2019-05-01T02:36:28.080Z,53.79
2019-05-01T02:38:58.646Z,54.22
2019-05-01T02:41:31.643Z,54.36
2019-05-01T02:44:07.588Z,53.84
2019-05-01T02:46:37.869Z,53.77
2019-05-01T02:49:15.398Z,54.07
2019-05-01T02:51:46.030Z,54.37
2019-05-01T02:54:18.530Z,54.22
2019-05-01T02:56:55.471Z,54.00
2019-05-01T02:59:28.189Z,54.19
2019-05-01T03:01:58.234Z,53.95
2019-05-01T03:04:28.001Z,54.27
2019-05-01T03:06:57.626Z,54.53
2019-05-01T03:09:27.480Z,54.41
2019-05-01T03:11:58.335Z,54.86
2019-05-01T03:14:30.645Z,54.87
2019-05-01T03:17:29.013Z,54.71
2019-05-01T03:20:09.369Z,55.03
2019-05-01T03:23:07.153Z,55.14
2019-05-01T03:25:36.727Z,55.26
2019-05-01T03:28:06.517Z,55.21
2019-05-01T03:30:36.152Z,55.37
2019-05-01T03:33:06.323Z,55.32
2019-05-01T03:35:35.848Z,55.02
2019-05-01T03:38:05.185Z,55.00
2019-05-01T03:40:34.822Z,55.28
2019-05-01T03:43:04.368Z,55.35
2019-05-01T03:45:34.412Z,54.91
2019-05-01T03:48:04.967Z,54.57
2019-05-01T03:50:34.578Z,54.49
2019-05-01T03:53:04.006Z,54.77
2019-05-01T03:55:33.456Z,54.65
2019-05-01T03:58:03.333Z,54.85
2019-05-01T04:00:50.014Z,54.69
2019-05-01T04:03:29.438Z,54.73
2019-05-01T04:05:59.201Z,54.92
2019-05-01T04:08:29.240Z,54.80
2019-05-01T04:10:58.690Z,54.95
2019-05-01T04:13:28.124Z,54.66
2019-05-01T04:15:57.754Z,54.70
2019-05-01T04:18:28.339Z,54.53
2019-05-01T04:20:58.527Z,54.10
2019-05-01T04:23:27.937Z,54.19
2019-05-01T04:25:57.664Z,53.90
2019-05-01T04:28:48.921Z,53.72
2019-05-01T04:31:53.045Z,50.03
2019-05-01T04:34:29.209Z,46.42
2019-05-01T04:37:01.013Z,43.94
2019-05-01T04:39:30.456Z,42.64
2019-05-01T04:41:59.868Z,41.54
2019-05-01T04:44:29.424Z,41.69
2019-05-01T04:46:59.441Z,41.48
2019-05-01T04:49:29.361Z,42.27
2019-05-01T04:51:58.885Z,44.83
2019-05-01T04:54:28.514Z,46.96
2019-05-01T04:56:58.062Z,48.30
2019-05-01T04:59:27.548Z,49.15
2019-05-01T05:02:02.697Z,48.87
2019-05-01T05:04:32.347Z,49.10
2019-05-01T05:07:02.862Z,48.44
2019-05-01T05:09:57.459Z,49.08
2019-05-01T05:12:39.889Z,49.38
2019-05-01T05:15:22.944Z,49.38
2019-05-01T05:17:52.775Z,50.09
2019-05-01T05:20:22.130Z,49.60
2019-05-01T05:22:51.874Z,49.65
2019-05-01T05:25:21.389Z,49.45
2019-05-01T05:27:51.718Z,49.70
2019-05-01T05:30:22.121Z,49.59
2019-05-01T05:32:53.080Z,49.40
2019-05-01T05:35:24.817Z,49.07
2019-05-01T05:38:09.298Z,49.89
2019-05-01T05:40:40.233Z,49.11
2019-05-01T05:43:10.217Z,48.76
2019-05-01T05:45:40.073Z,48.64
2019-05-01T05:48:09.997Z,48.36
2019-05-01T05:50:50.818Z,47.46
2019-05-01T05:53:24.746Z,47.14
2019-05-01T05:55:57.159Z,46.51
2019-05-01T05:58:33.674Z,45.93
2019-05-01T06:01:19.364Z,42.56
2019-05-01T06:04:25.855Z,40.47
2019-05-01T06:07:23.961Z,38.35
2019-05-01T06:10:18.536Z,38.29
2019-05-01T06:13:12.134Z,38.02
2019-05-01T06:15:54.380Z,37.89
2019-05-01T06:18:34.871Z,37.33
2019-05-01T06:21:21.032Z,37.76
2019-05-01T06:24:08.297Z,35.83
2019-05-01T06:26:39.522Z,35.31
2019-05-01T06:29:08.978Z,36.22
2019-05-01T06:31:38.448Z,37.05
2019-05-01T06:34:07.794Z,37.80
2019-05-01T06:36:37.275Z,38.54
2019-05-01T06:39:11.845Z,41.22
2019-05-01T06:41:43.977Z,39.78
2019-05-01T06:44:39.231Z,37.75
2019-05-01T06:47:19.778Z,36.49
2019-05-01T06:50:06.017Z,35.61
2019-05-01T06:52:35.821Z,37.52
2019-05-01T06:55:05.373Z,37.43
2019-05-01T06:57:38.501Z,38.08
2019-05-01T07:00:09.430Z,38.13
2019-05-01T07:02:39.228Z,37.93
2019-05-01T07:05:14.422Z,38.49
2019-05-01T07:07:43.128Z,40.24
2019-05-01T07:10:11.876Z,41.07
2019-05-01T07:12:41.939Z,40.62
2019-05-01T07:15:11.352Z,39.47
2019-05-01T07:17:43.833Z,38.51
2019-05-01T07:20:47.336Z,40.22
2019-05-01T07:23:19.691Z,40.25
2019-05-01T07:25:52.522Z,36.98
2019-05-01T07:28:22.770Z,35.65
2019-05-01T07:31:01.023Z,36.39
2019-05-01T07:33:30.831Z,36.73
2019-05-01T07:36:06.934Z,37.17
2019-05-01T07:38:38.810Z,38.27
2019-05-01T07:41:08.887Z,36.81
2019-05-01T07:43:55.047Z,36.68
2019-05-01T07:46:35.029Z,36.85
2019-05-01T07:49:04.704Z,35.63
2019-05-01T07:51:37.844Z,35.21
2019-05-01T07:54:08.890Z,33.93
2019-05-01T07:56:37.212Z,33.56
2019-05-01T07:59:06.824Z,33.10
2019-05-01T08:02:04.254Z,33.99
2019-05-01T08:04:36.879Z,34.12
2019-05-01T08:07:04.963Z,33.12
2019-05-01T08:09:34.472Z,33.78
2019-05-01T08:12:03.915Z,33.46
2019-05-01T08:14:33.323Z,34.41
2019-05-01T08:17:02.806Z,34.42
2019-05-01T08:19:53.844Z,33.17
2019-05-01T08:22:25.611Z,31.33
2019-05-01T08:24:58.807Z,30.85
2019-05-01T08:27:44.437Z,32.22
2019-05-01T08:30:33.622Z,33.21
2019-05-01T08:33:27.713Z,35.23
2019-05-01T08:35:57.071Z,36.38
2019-05-01T08:38:29.854Z,36.86
2019-05-01T08:40:57.525Z,37.80
2019-05-01T08:43:26.895Z,37.64
2019-05-01T08:46:16.436Z,38.51
2019-05-01T08:48:56.300Z,39.50
2019-05-01T08:51:30.132Z,39.71
2019-05-01T08:53:57.764Z,37.99
2019-05-01T08:56:28.285Z,38.50
2019-05-01T08:58:57.639Z,39.85
2019-05-01T09:01:27.920Z,39.59
2019-05-01T09:03:57.575Z,39.45
2019-05-01T09:06:34.473Z,39.21
2019-05-01T09:08:58.012Z,39.26
2019-05-01T09:11:27.373Z,39.12
2019-05-01T09:13:58.980Z,39.00
2019-05-01T09:16:28.307Z,39.58
2019-05-01T09:18:59.069Z,39.69
2019-05-01T09:21:28.451Z,39.82
2019-05-01T09:23:57.804Z,39.60
2019-05-01T09:26:52.351Z,39.15
2019-05-01T09:29:26.696Z,37.32
2019-05-01T09:31:56.079Z,34.92
2019-05-01T09:34:25.772Z,33.87
2019-05-01T09:36:57.536Z,34.34
2019-05-01T09:39:27.898Z,33.57
2019-05-01T09:41:57.740Z,32.45
2019-05-01T09:44:27.153Z,32.10
2019-05-01T09:46:56.525Z,32.38
2019-05-01T09:49:25.951Z,32.66
2019-05-01T09:52:26.374Z,31.17
2019-05-01T09:55:04.245Z,31.62
2019-05-01T09:57:36.398Z,30.89
2019-05-01T10:00:07.050Z,31.37
2019-05-01T10:02:37.540Z,30.44
2019-05-01T10:05:07.979Z,30.69
2019-05-01T10:07:37.408Z,31.04
2019-05-01T10:10:07.980Z,32.87
2019-05-01T10:12:37.349Z,31.12
2019-05-01T10:15:06.799Z,31.33
2019-05-01T10:17:36.150Z,30.95
2019-05-01T10:20:05.687Z,30.65
2019-05-01T10:22:37.493Z,31.18
2019-05-01T10:25:08.596Z,31.57
2019-05-01T10:27:39.676Z,30.50
2019-05-01T10:30:18.603Z,29.64
2019-05-01T10:32:52.851Z,30.39
2019-05-01T10:35:44.612Z,29.89
2019-05-01T10:38:14.021Z,31.10
2019-05-01T10:40:43.355Z,32.68
2019-05-01T10:43:13.091Z,34.13
2019-05-01T10:45:42.470Z,33.08
2019-05-01T10:48:11.860Z,32.15
2019-05-01T10:50:41.182Z,31.76
2019-05-01T10:53:10.557Z,31.28
2019-05-01T10:55:39.993Z,32.81
2019-05-01T10:58:12.902Z,33.91
2019-05-01T11:00:42.294Z,31.58
2019-05-01T11:03:11.850Z,31.80
2019-05-01T11:05:41.231Z,30.18
2019-05-01T11:08:17.182Z,29.87
2019-05-01T11:10:48.342Z,30.91
2019-05-01T11:13:22.734Z,30.20
2019-05-01T11:15:58.546Z,30.09
2019-05-01T11:18:39.615Z,30.41
2019-05-01T11:21:11.264Z,30.67
2019-05-01T11:23:40.651Z,29.75
2019-05-01T11:26:11.221Z,29.99
2019-05-01T11:28:40.477Z,30.16
2019-05-01T11:31:11.781Z,29.97
2019-05-01T11:34:05.901Z,29.23
2019-05-01T11:37:00.266Z,28.94
2019-05-01T11:39:35.891Z,29.22
2019-05-01T11:42:07.280Z,28.79
2019-05-01T11:44:36.625Z,28.46
2019-05-01T11:47:06.514Z,27.97
2019-05-01T11:49:35.855Z,26.88
2019-05-01T11:52:05.205Z,27.90
2019-05-01T11:54:34.645Z,27.95
2019-05-01T11:57:04.317Z,28.28
2019-05-01T11:59:34.090Z,28.72
2019-05-01T12:02:03.438Z,30.57
2019-05-01T12:04:32.758Z,30.54
2019-05-01T12:07:02.109Z,29.36
2019-05-01T12:09:31.461Z,28.46
2019-05-01T12:12:04.323Z,30.00
2019-05-01T12:14:33.674Z,29.85
2019-05-01T12:17:09.305Z,31.75
2019-05-01T12:19:38.619Z,32.52
2019-05-01T12:22:08.068Z,33.09
2019-05-01T12:24:40.324Z,33.01
2019-05-01T12:27:10.031Z,33.98
2019-05-01T12:29:39.482Z,33.40
2019-05-01T12:32:08.809Z,32.55
2019-05-01T12:34:38.513Z,32.35
2019-05-01T12:37:25.766Z,32.12
2019-05-01T12:39:55.156Z,33.42
2019-05-01T12:42:37.406Z,34.62
2019-05-01T12:45:08.662Z,33.95
2019-05-01T12:48:00.212Z,33.74
2019-05-01T12:50:29.555Z,32.51
2019-05-01T12:53:14.436Z,32.97
2019-05-01T12:56:05.801Z,32.32
2019-05-01T12:58:37.029Z,32.73
2019-05-01T13:01:06.493Z,32.72
2019-05-01T13:03:38.014Z,33.12
2019-05-01T13:06:07.480Z,33.82
2019-05-01T13:08:36.881Z,33.76
2019-05-01T13:11:06.274Z,33.42
2019-05-01T13:13:35.678Z,34.35
2019-05-01T13:16:05.042Z,34.27
2019-05-01T13:18:34.811Z,34.78
2019-05-01T13:21:05.119Z,34.17
2019-05-01T13:23:34.993Z,35.38
2019-05-01T13:26:17.727Z,35.48
2019-05-01T13:28:58.305Z,36.08
2019-05-01T13:31:52.465Z,35.95
2019-05-01T13:34:22.119Z,34.91
2019-05-01T13:37:02.309Z,35.26
2019-05-01T13:39:23.405Z,35.92
2019-05-01T13:41:53.066Z,35.92
2019-05-01T13:44:22.491Z,35.52
2019-05-01T13:46:52.346Z,35.94
2019-05-01T13:49:21.720Z,36.62
2019-05-01T13:51:56.644Z,37.17
2019-05-01T13:54:26.137Z,37.08
2019-05-01T13:56:55.491Z,36.72
2019-05-01T13:59:24.857Z,37.00
2019-05-01T14:01:54.539Z,37.07
2019-05-01T14:04:24.658Z,36.91
2019-05-01T14:06:54.362Z,36.38
2019-05-01T14:09:32.390Z,35.82
2019-05-01T14:12:01.729Z,36.06
2019-05-01T14:14:31.076Z,36.65
2019-05-01T14:17:00.458Z,37.21
2019-05-01T14:19:31.611Z,38.06
2019-05-01T14:22:13.746Z,39.09
2019-05-01T14:24:47.441Z,40.02
2019-05-01T14:27:17.859Z,41.25
2019-05-01T14:29:47.250Z,41.65
2019-05-01T14:32:23.006Z,41.96
2019-05-01T14:34:52.615Z,41.64
2019-05-01T14:37:29.581Z,41.53
2019-05-01T14:39:54.622Z,41.49
2019-05-01T14:42:28.266Z,41.26
2019-05-01T14:44:57.800Z,41.78
2019-05-01T14:47:27.362Z,42.29
2019-05-01T14:49:56.698Z,42.97
2019-05-01T14:52:26.793Z,42.90
2019-05-01T14:54:57.004Z,42.57
2019-05-01T14:57:28.729Z,42.62
2019-05-01T14:59:59.569Z,42.50
2019-05-01T15:02:28.917Z,42.71
2019-05-01T15:04:58.277Z,42.99
2019-05-01T15:07:27.619Z,42.91
2019-05-01T15:09:56.974Z,43.09
2019-05-01T15:12:26.309Z,43.09
2019-05-01T15:15:20.718Z,43.33
2019-05-01T15:18:04.059Z,44.07
2019-05-01T15:20:33.381Z,44.55
2019-05-01T15:23:04.509Z,45.03
2019-05-01T15:25:33.864Z,45.21
2019-05-01T15:28:03.201Z,45.23
2019-05-01T15:30:32.571Z,45.18
2019-05-01T15:33:01.936Z,45.49
2019-05-01T15:35:31.304Z,45.40
2019-05-01T15:38:00.650Z,45.40
2019-05-01T15:40:38.800Z,45.93
2019-05-01T15:43:26.116Z,46.20
2019-05-01T15:45:55.656Z,46.51
2019-05-01T15:48:25.007Z,47.03
2019-05-01T15:50:54.371Z,47.01
2019-05-01T15:53:24.131Z,47.41
2019-05-01T15:55:53.482Z,47.14
2019-05-01T15:58:22.845Z,46.55
2019-05-01T16:00:52.200Z,46.52
2019-05-01T16:03:21.526Z,46.73
2019-05-01T16:05:50.882Z,46.81
2019-05-01T16:08:20.231Z,47.03
2019-05-01T16:11:05.627Z,46.67
2019-05-01T16:13:35.490Z,46.19
2019-05-01T16:16:04.868Z,46.31
2019-05-01T16:18:34.225Z,46.50
2019-05-01T16:21:03.639Z,46.31
2019-05-01T16:23:33.001Z,46.28
2019-05-01T16:26:02.420Z,46.55
2019-05-01T16:28:44.569Z,46.67
2019-05-01T16:31:14.099Z,47.09
2019-05-01T16:33:43.548Z,47.59
2019-05-01T16:36:12.890Z,47.81
2019-05-01T16:39:11.304Z,48.09
2019-05-01T16:41:42.222Z,48.70
2019-05-01T16:44:13.613Z,49.11
2019-05-01T16:46:42.938Z,49.36
2019-05-01T16:49:12.389Z,49.47
2019-05-01T16:51:41.848Z,49.83
2019-05-01T16:54:11.232Z,50.02
2019-05-01T16:56:47.507Z,50.42
2019-05-01T16:59:30.741Z,50.55
2019-05-01T17:02:07.644Z,51.18
2019-05-01T17:04:43.071Z,52.04
2019-05-01T17:07:37.261Z,52.53
2019-05-01T17:10:34.724Z,52.92
2019-05-01T17:13:06.054Z,53.98
2019-05-01T17:15:40.950Z,54.83
2019-05-01T17:18:10.609Z,55.05
2019-05-01T17:20:40.104Z,55.96
2019-05-01T17:23:09.425Z,56.84
2019-05-01T17:25:38.912Z,57.73
2019-05-01T17:28:16.129Z,58.39
2019-05-01T17:31:00.223Z,58.76
2019-05-01T17:33:31.559Z,59.20
2019-05-01T17:36:04.328Z,59.39
2019-05-01T17:38:49.233Z,59.88
2019-05-01T17:41:27.094Z,60.47
2019-05-01T17:43:56.887Z,60.87
2019-05-01T17:46:41.884Z,60.63
2019-05-01T17:49:13.323Z,60.62
2019-05-01T17:51:46.316Z,60.67
2019-05-01T17:54:13.912Z,60.88
2019-05-01T17:56:48.499Z,61.09
2019-05-01T17:59:17.735Z,61.33
2019-05-01T18:01:58.168Z,61.62
2019-05-01T18:04:42.395Z,61.65
2019-05-01T18:07:11.836Z,62.31
2019-05-01T18:09:41.192Z,62.75
2019-05-01T18:12:10.576Z,62.85
2019-05-01T18:14:39.900Z,63.40
2019-05-01T18:17:09.579Z,63.21
2019-05-01T18:19:39.044Z,63.43
2019-05-01T18:22:16.208Z,63.60
2019-05-01T18:25:03.530Z,63.81
2019-05-01T18:28:01.008Z,64.21
2019-05-01T18:30:35.501Z,64.88
2019-05-01T18:33:05.064Z,64.74
2019-05-01T18:35:34.471Z,65.36
2019-05-01T18:38:35.177Z,65.35
2019-05-01T18:41:18.657Z,65.40
2019-05-01T18:43:47.954Z,65.84
2019-05-01T18:46:17.481Z,65.89
2019-05-01T18:48:46.943Z,66.15
2019-05-01T18:51:16.555Z,66.29
2019-05-01T18:53:45.915Z,67.02
2019-05-01T18:56:15.314Z,66.90
2019-05-01T18:58:44.653Z,67.35
2019-05-01T19:01:13.969Z,67.76
2019-05-01T19:03:44.190Z,67.72
2019-05-01T19:06:15.646Z,68.50
2019-05-01T19:08:44.851Z,68.76
2019-05-01T19:11:14.494Z,68.48
2019-05-01T19:13:43.991Z,68.82
2019-05-01T19:16:13.449Z,69.11
2019-05-01T19:18:42.811Z,69.55
2019-05-01T19:21:13.738Z,69.81
2019-05-01T19:23:43.174Z,69.53
2019-05-01T19:26:13.194Z,69.95
2019-05-01T19:28:42.586Z,70.81
2019-05-01T19:31:11.990Z,71.13
2019-05-01T19:33:41.914Z,70.73
2019-05-01T19:36:11.480Z,70.63
2019-05-01T19:38:40.829Z,70.49
2019-05-01T19:41:14.097Z,71.03
2019-05-01T19:43:42.158Z,70.39
2019-05-01T19:46:11.824Z,70.37
2019-05-01T19:48:45.455Z,70.45
2019-05-01T19:51:12.338Z,69.97
2019-05-01T19:53:51.902Z,70.10
2019-05-01T19:56:21.550Z,70.21
2019-05-01T19:58:52.221Z,70.40
2019-05-01T20:01:23.023Z,70.20
2019-05-01T20:03:52.380Z,70.15
2019-05-01T20:06:21.701Z,70.06
2019-05-01T20:08:54.251Z,70.24
2019-05-01T20:11:23.655Z,70.20
2019-05-01T20:13:53.109Z,70.22
2019-05-01T20:16:23.158Z,70.43
2019-05-01T20:18:52.460Z,70.50
2019-05-01T20:21:21.909Z,70.52
2019-05-01T20:23:51.235Z,70.57
2019-05-01T20:26:20.585Z,70.60
2019-05-01T20:28:49.893Z,70.66
2019-05-01T20:31:20.910Z,70.94
2019-05-01T20:33:50.577Z,71.04
2019-05-01T20:36:19.912Z,71.17
2019-05-01T20:38:49.391Z,71.28
2019-05-01T20:41:18.725Z,71.15
2019-05-01T20:43:48.079Z,71.29
2019-05-01T20:46:21.531Z,71.40
2019-05-01T20:48:48.468Z,71.28
2019-05-01T20:51:20.114Z,71.47
2019-05-01T20:53:48.876Z,71.96
2019-05-01T20:56:27.210Z,72.11
2019-05-01T20:58:57.744Z,72.49
2019-05-01T21:01:29.544Z,72.18
2019-05-01T21:04:24.601Z,72.21
2019-05-01T21:07:15.656Z,72.01
2019-05-01T21:09:47.647Z,72.26
2019-05-01T21:12:15.653Z,72.59
2019-05-01T21:14:49.734Z,73.40
2019-05-01T21:17:17.176Z,73.00
2019-05-01T21:19:46.522Z,72.76
2019-05-01T21:22:15.859Z,73.45
2019-05-01T21:24:45.208Z,73.68
2019-05-01T21:27:14.779Z,73.90
2019-05-01T21:29:44.610Z,73.67
2019-05-01T21:32:18.240Z,73.99
2019-05-01T21:34:45.269Z,73.88
2019-05-01T21:37:14.630Z,73.83
2019-05-01T21:39:44.018Z,73.87
2019-05-01T21:42:16.069Z,74.07
2019-05-01T21:44:44.441Z,74.18
2019-05-01T21:47:14.053Z,74.45
2019-05-01T21:49:43.568Z,74.44
2019-05-01T21:52:13.611Z,75.09
2019-05-01T21:54:43.080Z,75.59
2019-05-01T21:57:17.426Z,75.81
2019-05-01T21:59:44.890Z,76.71
2019-05-01T22:02:14.745Z,77.57
2019-05-01T22:04:44.114Z,78.17
2019-05-01T22:07:13.450Z,79.63
2019-05-01T22:09:45.707Z,80.43
2019-05-01T22:12:14.469Z,80.49
2019-05-01T22:14:57.099Z,81.64
2019-05-01T22:17:56.233Z,81.90
2019-05-01T22:20:32.581Z,83.38
2019-05-01T22:23:04.350Z,84.39
2019-05-01T22:25:40.477Z,85.18
2019-05-01T22:28:18.836Z,86.59
2019-05-01T22:31:05.284Z,87.04
2019-05-01T22:33:35.792Z,87.68
2019-05-01T22:36:05.400Z,87.78
2019-05-01T22:38:34.753Z,87.77
2019-05-01T22:41:08.967Z,87.54
2019-05-01T22:43:38.430Z,87.95
2019-05-01T22:46:10.357Z,88.56
2019-05-01T22:48:39.724Z,88.63
2019-05-01T22:51:28.073Z,87.75
2019-05-01T22:53:57.389Z,88.27
2019-05-01T22:56:26.852Z,87.67
2019-05-01T22:58:56.242Z,86.72
2019-05-01T23:01:26.496Z,86.55
2019-05-01T23:04:01.329Z,87.08
2019-05-01T23:06:30.681Z,87.36
2019-05-01T23:09:00.109Z,88.26
2019-05-01T23:11:31.648Z,88.08
2019-05-01T23:14:01.067Z,88.11
2019-05-01T23:16:34.422Z,89.42
2019-05-01T23:19:03.754Z,89.28
2019-05-01T23:21:33.090Z,88.90
2019-05-01T23:24:03.556Z,88.55
2019-05-01T23:26:32.939Z,88.09
2019-05-01T23:29:02.295Z,87.39
2019-05-01T23:31:31.666Z,86.74
2019-05-01T23:34:01.007Z,85.52
2019-05-01T23:36:30.333Z,86.05
2019-05-01T23:38:59.666Z,86.53
2019-05-01T23:41:45.351Z,86.31
2019-05-01T23:44:03.442Z,86.65
2019-05-01T23:46:31.157Z,85.86
2019-05-01T23:49:00.473Z,85.28
2019-05-01T23:51:30.014Z,85.42
2019-05-01T23:53:59.340Z,88.27
2019-05-01T23:56:30.990Z,89.25
2019-05-01T23:58:59.837Z,89.16
